createdAt,value
2023-03-22T00:28:36.237Z,84.05
2023-03-22T00:58:36.115Z,85.54
2023-03-22T01:28:36.019Z,86.7
2023-03-22T01:58:35.892Z,89.29
2023-03-22T02:58:35.540Z,90.53
2023-03-22T03:28:36.046Z,90.71
2023-03-22T03:58:38.962Z,91.35
2023-03-22T04:28:35.688Z,92.17
2023-03-22T04:58:35.569Z,93.46
2023-03-22T05:28:35.830Z,93.71
2023-03-22T06:28:35.446Z,93.66
2023-03-22T06:58:35.795Z,92.85
2023-03-22T07:28:35.365Z,84.3
2023-03-22T07:58:35.648Z,73.59
2023-03-22T08:28:35.769Z,61.1
2023-03-22T08:58:35.140Z,56.87
2023-03-22T09:28:35.579Z,50.58
2023-03-22T09:58:35.533Z,41.78
2023-03-22T10:28:35.095Z,41.95
2023-03-22T10:58:35.226Z,40.96
2023-03-22T11:28:35.448Z,38.5
2023-03-22T11:58:35.561Z,37.81
2023-03-22T12:28:35.516Z,36.7
2023-03-22T12:58:34.892Z,32.61
2023-03-22T13:28:34.977Z,31.61
2023-03-22T13:58:34.852Z,31.2
2023-03-22T14:58:34.359Z,29.9
2023-03-22T15:28:34.822Z,32.33
2023-03-22T15:58:34.707Z,29.65
2023-03-22T16:28:34.572Z,30.47
2023-03-22T16:58:34.777Z,33.67
2023-03-22T17:28:34.343Z,40.18
2023-03-22T17:58:41.094Z,45.34
2023-03-22T18:28:34.413Z,48.62
2023-03-22T18:58:34.356Z,56.52
2023-03-22T19:28:36.060Z,57.09
2023-03-22T19:58:34.733Z,62.72
2023-03-22T20:58:38.139Z,67.24
2023-03-22T21:28:34.206Z,69.54
2023-03-22T21:58:34.976Z,64.35
2023-03-22T22:28:33.807Z,55.56
2023-03-22T23:28:34.691Z,53.34
2023-03-22T23:58:33.867Z,51.31
